Avon Lake, Iowa
Current Conditions -  °F | °C
As of 9:54 PM on Wednesday 28 Jan 2015 (Local Time) from KDSM Reporting Station
Few Clouds Few Clouds  
Wind Chill:   Ceiling: Unl
Heat Index:   Visibility: 9mi
Dew Point:   Wind: 6mph
Humidity: 79%   Direction: 350°N
Pressure: 29.69"   Gusts: NA
Location:  41.4707°N, 93.4797°W
Report Text: KDSM 290354Z 35005KT 9SM FEW180 03/00 A2969 RMK AO2 SLP061 T00330000
Loading
Personal Weather Stations






























Interactive Weather Map New forecast layout! Learn more

10-Day Weather Forecast

Advertisements
Track Severe Weather on mobile